KCJR

Culpeper Regional Airport

Culpeper, Virginia, USA
METAR KCJR 101450Z AUTO 02007KT 10SM CLR 00/M08 A3022 RMK AO2 T10021080
Observed Flight Rules
Dec-10 @ 14:50 UTC (27 minutes ago) Visual Flight Rules
Wind Visibility Clouds
20° at 7 knots 10 miles
  • Clear skies
Temperatures Readings
Current -0°C / 32°F
Dewpoint -8°C / 18°F
Humidity 55%
Altimeter 30.22" Hg
Pressure 1023 hPa
Elevation 97
METAR KCJR 101450Z AUTO 02007KT 10SM CLR 00/M08 A3022 RMK AO2 T10021080
Observed Flight Rules
Dec-10 @ 14:50 UTC
(27 minutes ago)
VFR
Wind Visibility
20° at 7 knots 10 miles
Clouds
  • Clear skies
Temperature Dewpoint
-0°C / 32°F -8°C / 18°F
Humidity Altimeter Pressure
55% 30.22" Hg 1023 hPa